Time;durP1;ratioP1;P1;durP2;ratioP2;P2;SDS_P1;SDS_P2;PMS_P1;PMS_P2;Temp;Humidity;BMP_temperature;BMP_pressure;BME280_temperature;BME280_humidity;BME280_pressure;Samples;Min_cycle;Max_cycle;Signal;HPM_P1;HPM_P2
2023/07/05 00:00:32;;;;;;;9.68;4.82;;;15.70;99.90;;;;;;5072345;28;20016;-55
2023/07/05 00:02:57;;;;;;;15.88;5.10;;;15.60;99.90;;;;;;5071767;28;20032;-55
2023/07/05 00:05:23;;;;;;;8.30;5.22;;;15.60;99.90;;;;;;5073259;28;20430;-69
2023/07/05 00:07:49;;;;;;;8.32;4.90;;;15.50;99.90;;;;;;5072708;28;20025;-56
2023/07/05 00:10:15;;;;;;;12.32;5.13;;;15.50;99.90;;;;;;5069565;28;20096;-58
2023/07/05 00:12:40;;;;;;;7.03;4.88;;;15.50;99.90;;;;;;5073176;28;20506;-57
2023/07/05 00:15:07;;;;;;;9.98;5.15;;;15.50;99.90;;;;;;5073159;28;20047;-58
2023/07/05 00:17:34;;;;;;;11.55;5.10;;;15.50;99.90;;;;;;5063445;28;20039;-59
2023/07/05 00:20:00;;;;;;;9.53;5.07;;;15.50;99.90;;;;;;5072931;28;20020;-57
2023/07/05 00:22:26;;;;;;;9.98;6.07;;;15.50;99.90;;;;;;5072894;28;20028;-57
2023/07/05 00:24:53;;;;;;;12.95;6.32;;;15.50;99.90;;;;;;5071272;28;20051;-57
2023/07/05 00:27:20;;;;;;;16.90;5.78;;;15.50;99.90;;;;;;5073007;28;20024;-58
2023/07/05 00:29:45;;;;;;;8.77;5.43;;;15.50;99.90;;;;;;5072958;28;20025;-57
2023/07/05 00:32:11;;;;;;;11.55;6.60;;;15.60;99.90;;;;;;5070614;28;20550;-54
2023/07/05 00:34:36;;;;;;;8.63;5.18;;;15.60;99.90;;;;;;5065579;28;20074;-57
2023/07/05 00:37:02;;;;;;;12.27;4.95;;;15.60;99.90;;;;;;5072659;28;20032;-56
2023/07/05 00:39:28;;;;;;;11.50;5.03;;;15.70;99.90;;;;;;5069711;28;20111;-57
2023/07/05 00:41:55;;;;;;;12.30;6.50;;;15.70;99.90;;;;;;5072801;28;20028;-57
2023/07/05 00:44:21;;;;;;;12.63;5.35;;;15.70;99.90;;;;;;5072371;28;20024;-57
2023/07/05 00:46:51;;;;;;;11.27;4.88;;;15.70;99.90;;;;;;5071957;28;20031;-57
2023/07/05 00:49:21;;;;;;;7.22;4.20;;;15.70;99.90;;;;;;5069137;28;20067;-56
2023/07/05 00:51:47;;;;;;;15.77;4.95;;;15.80;99.90;;;;;;5072650;28;20032;-56
2023/07/05 00:54:17;;;;;;;10.23;4.28;;;15.80;99.90;;;;;;5071836;28;20040;-57
2023/07/05 00:56:52;;;;;;;8.32;4.00;;;15.70;99.90;;;;;;5070663;28;20396;-56
2023/07/05 00:59:20;;;;;;;9.07;3.95;;;15.80;99.90;;;;;;5071714;28;20058;-57
2023/07/05 01:01:45;;;;;;;;;;;15.80;99.90;;;;;;5073010;28;20040;-57
2023/07/05 01:04:11;;;;;;;6.88;3.25;;;15.80;99.90;;;;;;5068329;28;19916;-56
2023/07/05 01:06:39;;;;;;;10.82;4.15;;;15.90;99.90;;;;;;5070050;28;20024;-57
2023/07/05 01:09:06;;;;;;;8.02;3.35;;;15.90;99.90;;;;;;5070675;28;20114;-65
2023/07/05 01:12:02;;;;;;;7.85;3.72;;;15.90;99.90;;;;;;5072607;28;20025;-62
2023/07/05 01:14:40;;;;;;;7.33;3.90;;;15.90;99.90;;;;;;5071173;28;20443;-58
2023/07/05 01:17:10;;;;;;;7.40;3.80;;;15.90;99.90;;;;;;5072771;28;20103;-59
2023/07/05 01:20:16;;;;;;;6.90;3.28;;;15.90;99.90;;;;;;5071362;28;20469;-59
2023/07/05 01:23:05;;;;;;;8.95;2.83;;;16.00;99.90;;;;;;5069491;28;20044;-58
2023/07/05 01:25:37;;;;;;;5.10;2.90;;;16.00;99.90;;;;;;5069407;28;20494;-58
2023/07/05 01:28:23;;;;;;;3.75;2.67;;;16.00;99.90;;;;;;5070859;28;20037;-58
2023/07/05 01:31:10;;;;;;;4.18;2.78;;;16.00;99.90;;;;;;5076276;28;20370;-59
2023/07/05 01:34:03;;;;;;;5.30;2.45;;;16.00;99.90;;;;;;5074364;28;20031;-57
2023/07/05 01:36:30;;;;;;;10.15;2.95;;;16.00;99.90;;;;;;5076242;28;20077;-56
2023/07/05 01:38:56;;;;;;;6.70;2.55;;;16.00;99.90;;;;;;5075603;28;20086;-60
2023/07/05 01:41:22;;;;;;;6.05;3.15;;;16.00;99.90;;;;;;5074155;28;20024;-57
2023/07/05 01:43:49;;;;;;;4.32;2.60;;;16.00;99.90;;;;;;5073656;28;20035;-57
2023/07/05 01:46:26;;;;;;;5.22;2.55;;;16.00;99.90;;;;;;5073265;28;20043;-57
2023/07/05 01:49:09;;;;;;;2.05;1.88;;;16.00;99.90;;;;;;5074171;28;20022;-57
2023/07/05 01:51:41;;;;;;;2.88;1.60;;;16.00;99.90;;;;;;5064893;28;20037;-60
2023/07/05 01:54:15;;;;;;;3.50;2.05;;;15.90;99.90;;;;;;5069807;28;20033;-58
2023/07/05 01:56:58;;;;;;;3.30;1.92;;;15.90;99.90;;;;;;5071787;28;20438;-57
2023/07/05 01:59:39;;;;;;;2.83;1.60;;;16.00;99.90;;;;;;5061197;28;20032;-57
2023/07/05 02:02:06;;;;;;;3.88;1.77;;;15.90;99.90;;;;;;5067115;28;20040;-58
2023/07/05 02:04:35;;;;;;;2.42;1.70;;;15.90;99.90;;;;;;5074414;28;20048;-58
2023/07/05 02:07:05;;;;;;;4.80;1.40;;;15.90;99.90;;;;;;5075435;28;20055;-58
2023/07/05 02:09:36;;;;;;;4.78;1.60;;;15.80;99.90;;;;;;5071340;28;20070;-55
2023/07/05 02:12:01;;;;;;;2.28;1.42;;;15.80;99.90;;;;;;5075474;28;20017;-57
2023/07/05 02:14:27;;;;;;;3.20;1.67;;;15.70;99.90;;;;;;5071221;28;20033;-55
2023/07/05 02:16:53;;;;;;;3.05;1.20;;;15.70;99.90;;;;;;5075210;28;20577;-54
2023/07/05 02:19:18;;;;;;;3.33;1.88;;;15.60;99.90;;;;;;5072092;28;20029;-55
2023/07/05 02:21:45;;;;;;;4.90;1.67;;;15.60;99.90;;;;;;5074441;28;20025;-55
2023/07/05 02:24:11;;;;;;;3.30;1.33;;;15.60;99.90;;;;;;5072469;28;20024;-56
2023/07/05 02:26:36;;;;;;;2.63;1.10;;;15.50;99.90;;;;;;5073067;28;20366;-51
2023/07/05 02:29:02;;;;;;;2.08;1.05;;;15.40;99.90;;;;;;5074239;28;20157;-53
2023/07/05 02:31:29;;;;;;;3.60;1.83;;;15.30;99.90;;;;;;5073277;28;20031;-51
2023/07/05 02:33:54;;;;;;;2.47;1.05;;;15.30;99.90;;;;;;5074266;28;20419;-53
2023/07/05 02:36:20;;;;;;;4.38;1.30;;;15.30;99.90;;;;;;5073293;28;20206;-60
2023/07/05 02:38:46;;;;;;;4.28;1.63;;;15.30;99.90;;;;;;5071390;28;20029;-53
2023/07/05 02:41:11;;;;;;;3.67;2.10;;;15.20;99.90;;;;;;5073342;28;20048;-55
2023/07/05 02:43:37;;;;;;;6.72;1.50;;;15.20;99.90;;;;;;5074870;28;20504;-49
2023/07/05 02:46:05;;;;;;;1.77;1.25;;;15.10;99.90;;;;;;5072828;28;20509;-50
2023/07/05 02:48:31;;;;;;;3.22;1.42;;;15.00;99.90;;;;;;5073755;28;20028;-54
2023/07/05 02:50:57;;;;;;;6.05;2.35;;;15.00;99.90;;;;;;5072763;28;20028;-56
2023/07/05 02:53:22;;;;;;;6.20;1.80;;;14.90;99.90;;;;;;5074749;28;20028;-55
2023/07/05 02:55:50;;;;;;;7.90;1.85;;;14.90;99.90;;;;;;5071356;28;20448;-52
2023/07/05 02:58:16;;;;;;;2.75;2.05;;;14.90;99.90;;;;;;5074949;28;20397;-52
2023/07/05 03:00:43;;;;;;;3.67;2.53;;;14.90;99.90;;;;;;5071256;28;20040;-53
2023/07/05 03:03:09;;;;;;;4.88;2.00;;;14.90;99.90;;;;;;5073575;28;20103;-55
2023/07/05 03:05:34;;;;;;;4.65;2.50;;;14.90;99.90;;;;;;5072568;28;20548;-53
2023/07/05 03:08:00;;;;;;;3.47;2.08;;;14.90;99.90;;;;;;5074418;28;20028;-54
2023/07/05 03:10:25;;;;;;;2.33;2.03;;;14.80;99.90;;;;;;5072518;28;20020;-53
2023/07/05 03:12:51;;;;;;;8.38;2.33;;;14.80;99.90;;;;;;5073303;28;20028;-51
2023/07/05 03:15:17;;;;;;;7.50;2.58;;;14.70;99.90;;;;;;5073242;28;20021;-53
2023/07/05 03:17:43;;;;;;;6.82;2.40;;;14.70;99.90;;;;;;5073084;28;20070;-55
2023/07/05 03:20:09;;;;;;;4.55;2.15;;;14.60;99.90;;;;;;5069399;28;20159;-51
2023/07/05 03:22:34;;;;;;;2.88;2.17;;;14.60;99.90;;;;;;5073160;28;20024;-54
2023/07/05 03:25:00;;;;;;;6.13;2.33;;;14.60;99.90;;;;;;5066953;28;20045;-54
2023/07/05 03:27:30;;;;;;;4.57;2.05;;;14.60;99.90;;;;;;5072432;28;20095;-54
2023/07/05 03:29:56;;;;;;;3.47;2.22;;;14.60;99.90;;;;;;5074052;28;20637;-53
2023/07/05 03:32:22;;;;;;;6.63;2.50;;;14.60;99.90;;;;;;5072050;28;20107;-54
2023/07/05 03:34:50;;;;;;;5.00;2.53;;;14.60;99.90;;;;;;5072071;28;20412;-55
2023/07/05 03:37:16;;;;;;;5.13;2.50;;;14.60;99.90;;;;;;5073267;28;20028;-53
2023/07/05 03:39:41;;;;;;;9.25;2.95;;;14.50;99.90;;;;;;5070722;28;20028;-53
2023/07/05 03:42:07;;;;;;;3.97;3.10;;;14.50;99.90;;;;;;5073501;28;20035;-54
2023/07/05 03:44:33;;;;;;;7.22;2.97;;;14.50;99.90;;;;;;5067274;28;20033;-64
2023/07/05 03:46:59;;;;;;;10.68;3.08;;;14.50;99.90;;;;;;5072527;28;20035;-51
2023/07/05 03:49:24;;;;;;;6.80;2.33;;;14.50;99.90;;;;;;5073685;28;20016;-56
2023/07/05 03:51:50;;;;;;;5.20;3.08;;;14.50;99.90;;;;;;5073353;28;20064;-55
2023/07/05 03:54:15;;;;;;;3.33;2.60;;;14.50;99.90;;;;;;5071393;28;20503;-56
2023/07/05 03:56:41;;;;;;;3.63;2.70;;;14.50;99.90;;;;;;5073465;28;20032;-51
2023/07/05 03:59:07;;;;;;;4.15;2.42;;;14.50;99.90;;;;;;5070663;28;20369;-54
2023/07/05 04:01:33;;;;;;;7.75;2.90;;;14.50;99.90;;;;;;5072127;28;20032;-54
2023/07/05 04:04:01;;;;;;;6.28;3.17;;;14.50;99.90;;;;;;5069928;28;20142;-54
2023/07/05 04:06:30;;;;;;;3.95;2.80;;;14.50;99.90;;;;;;5073300;28;20024;-56
2023/07/05 04:08:56;;;;;;;10.63;2.60;;;14.50;99.90;;;;;;5070886;28;20035;-56
2023/07/05 04:11:23;;;;;;;8.00;2.53;;;14.50;99.90;;;;;;5072424;28;20021;-50
2023/07/05 04:13:51;;;;;;;7.07;2.47;;;14.50;99.90;;;;;;5072648;28;20020;-54
2023/07/05 04:16:17;;;;;;;;;;;14.50;99.90;;;;;;5073576;28;20032;-55
2023/07/05 04:18:45;;;;;;;6.68;2.88;;;14.50;99.90;;;;;;5069581;28;20360;-56
2023/07/05 04:21:11;;;;;;;6.18;2.33;;;14.50;99.90;;;;;;5072062;28;20028;-56
2023/07/05 04:23:39;;;;;;;5.70;2.67;;;14.50;99.90;;;;;;5070682;28;20025;-57
2023/07/05 04:26:07;;;;;;;8.30;2.72;;;14.60;99.90;;;;;;5072855;28;20044;-55
2023/07/05 04:28:34;;;;;;;7.63;2.38;;;14.60;99.90;;;;;;5067948;28;20036;-56
2023/07/05 04:31:00;;;;;;;3.65;2.35;;;14.60;99.90;;;;;;5072938;28;20078;-55
2023/07/05 04:33:26;;;;;;;3.28;2.40;;;14.60;99.90;;;;;;5071659;28;20016;-56
2023/07/05 04:35:55;;;;;;;6.57;2.53;;;14.60;99.90;;;;;;5070471;28;20032;-56
2023/07/05 04:38:42;;;;;;;6.45;2.65;;;14.60;99.90;;;;;;5070798;28;20039;-57
2023/07/05 04:41:09;;;;;;;5.68;2.83;;;14.60;99.90;;;;;;5072808;28;20017;-55
2023/07/05 04:43:34;;;;;;;7.38;2.60;;;14.50;99.90;;;;;;5072722;28;20032;-57
2023/07/05 04:46:00;;;;;;;7.65;3.25;;;14.50;99.90;;;;;;5071809;28;20028;-44
2023/07/05 04:48:28;;;;;;;5.55;3.05;;;14.30;99.90;;;;;;5070839;28;20404;-47
2023/07/05 04:50:54;;;;;;;;;;;14.20;99.90;;;;;;5073106;28;20362;-44
2023/07/05 04:53:25;;;;;;;7.00;2.72;;;14.00;99.90;;;;;;5071700;28;19969;-66
2023/07/05 04:55:57;;;;;;;4.10;2.35;;;13.90;99.90;;;;;;5052688;28;20021;-58
2023/07/05 04:58:23;;;;;;;7.63;3.42;;;13.70;99.90;;;;;;5068070;28;20503;-73
2023/07/05 05:00:50;;;;;;;4.90;2.22;;;13.60;99.90;;;;;;5072560;28;20059;-44
2023/07/05 05:03:21;;;;;;;4.25;2.55;;;13.50;99.90;;;;;;5068547;28;20119;-49
2023/07/05 05:05:51;;;;;;;5.80;2.17;;;13.50;99.90;;;;;;5065274;28;20090;-44
2023/07/05 05:08:19;;;;;;;4.18;2.03;;;13.50;99.90;;;;;;5064113;28;20069;-42
2023/07/05 05:10:45;;;;;;;;;;;13.50;99.90;;;;;;5057785;28;20017;-42
2023/07/05 05:13:10;;;;;;;5.68;2.38;;;13.50;99.90;;;;;;5056619;28;19916;-43
2023/07/05 05:15:40;;;;;;;3.25;2.20;;;13.50;99.90;;;;;;5056180;28;20021;-43
2023/07/05 05:18:09;;;;;;;3.72;2.72;;;13.50;99.90;;;;;;5075802;28;20039;-45
2023/07/05 05:20:38;;;;;;;9.00;2.50;;;13.60;99.90;;;;;;5076479;28;20056;-47
2023/07/05 05:23:04;;;;;;;4.22;2.15;;;13.60;99.90;;;;;;5064639;28;20155;-41
2023/07/05 05:25:29;;;;;;;3.50;2.15;;;13.70;99.90;;;;;;5071455;28;20441;-44
2023/07/05 05:27:55;;;;;;;4.88;2.55;;;13.80;99.90;;;;;;5076352;28;20025;-44
2023/07/05 05:30:22;;;;;;;3.83;1.63;;;13.80;99.90;;;;;;5076536;28;20104;-43
2023/07/05 05:32:47;;;;;;;6.75;1.35;;;13.80;99.90;;;;;;5075633;28;20024;-43
2023/07/05 05:35:15;;;;;;;4.50;1.30;;;13.80;99.90;;;;;;5074946;28;20488;-41
2023/07/05 05:37:42;;;;;;;4.22;1.25;;;13.80;99.90;;;;;;5076147;28;20037;-41
2023/07/05 05:40:09;;;;;;;2.38;1.33;;;13.80;99.90;;;;;;5073349;28;20055;-42
2023/07/05 05:42:35;;;;;;;7.53;2.25;;;13.80;99.90;;;;;;5075104;28;20039;-42
2023/07/05 05:45:01;;;;;;;2.10;0.98;;;13.80;99.90;;;;;;5075954;28;20485;-49
2023/07/05 05:47:27;;;;;;;2.67;1.52;;;13.70;99.90;;;;;;5076147;28;20074;-41
2023/07/05 05:49:52;;;;;;;2.25;1.15;;;13.70;99.90;;;;;;5073750;28;20027;-39
2023/07/05 05:52:18;;;;;;;1.80;1.17;;;13.70;99.90;;;;;;5078797;28;20070;-39
2023/07/05 05:54:43;;;;;;;3.30;1.20;;;13.60;99.90;;;;;;5075778;28;20099;-40
2023/07/05 05:57:09;;;;;;;3.63;1.00;;;13.50;99.90;;;;;;5065847;28;20071;-46
2023/07/05 05:59:35;;;;;;;2.03;1.25;;;13.40;99.90;;;;;;5073411;28;20481;-42
2023/07/05 06:02:01;;;;;;;3.97;1.48;;;13.40;99.90;;;;;;5075637;28;20107;-69
2023/07/05 06:04:27;;;;;;;3.25;1.20;;;13.30;99.90;;;;;;5075241;28;20077;-42
2023/07/05 06:06:53;;;;;;;1.05;1.00;;;13.20;99.90;;;;;;5075607;28;20040;-45
2023/07/05 06:09:18;;;;;;;2.25;1.20;;;13.10;99.90;;;;;;5074607;28;20376;-46
2023/07/05 06:11:44;;;;;;;5.63;0.98;;;12.90;99.90;;;;;;5071548;28;20035;-45
2023/07/05 06:14:10;;;;;;;4.40;1.52;;;12.70;99.90;;;;;;5071697;28;20029;-39
2023/07/05 06:16:35;;;;;;;4.43;1.33;;;12.60;99.90;;;;;;5071812;28;20024;-42
2023/07/05 06:19:01;;;;;;;2.90;1.00;;;12.50;99.90;;;;;;5069505;28;20444;-43
2023/07/05 06:21:27;;;;;;;3.35;0.90;;;12.50;99.90;;;;;;5069389;28;20485;-48
2023/07/05 06:23:52;;;;;;;8.02;0.93;;;12.40;99.90;;;;;;5074030;28;20031;-43
2023/07/05 06:26:19;;;;;;;4.70;1.13;;;12.40;99.90;;;;;;5073965;28;20060;-38
2023/07/05 06:28:45;;;;;;;6.72;1.25;;;12.40;99.90;;;;;;5074505;28;20032;-42
2023/07/05 06:31:11;;;;;;;2.50;0.80;;;12.20;99.90;;;;;;5075086;28;20037;-63
2023/07/05 06:33:38;;;;;;;6.13;1.00;;;12.20;99.90;;;;;;5073980;28;20413;-38
2023/07/05 06:36:05;;;;;;;7.50;1.17;;;12.20;99.90;;;;;;5072986;28;20024;-39
2023/07/05 06:38:31;;;;;;;3.13;0.70;;;12.10;99.90;;;;;;5071350;28;20473;-41
2023/07/05 06:40:57;;;;;;;1.20;0.68;;;12.00;99.90;;;;;;5067286;28;20074;-36
2023/07/05 06:43:23;;;;;;;3.58;1.17;;;12.00;99.90;;;;;;5074859;28;20089;-41
2023/07/05 06:45:53;;;;;;;2.10;0.70;;;11.90;99.90;;;;;;5071252;28;20060;-36
2023/07/05 06:48:20;;;;;;;4.88;0.93;;;11.90;99.90;;;;;;5089234;28;20020;-37
2023/07/05 06:50:52;;;;;;;6.53;1.15;;;11.80;99.90;;;;;;5093779;28;20016;-36
2023/07/05 06:53:19;;;;;;;4.68;0.93;;;11.80;99.90;;;;;;5073561;28;20036;-40
2023/07/05 06:55:49;;;;;;;2.55;0.90;;;11.80;99.90;;;;;;5073415;28;20024;-40
2023/07/05 06:58:17;;;;;;;6.85;2.00;;;11.80;99.90;;;;;;5074740;28;20036;-37
2023/07/05 07:00:45;;;;;;;5.32;1.20;;;11.80;99.90;;;;;;5072538;28;20504;-42
2023/07/05 07:03:11;;;;;;;3.92;1.00;;;11.80;99.90;;;;;;5071823;28;20028;-41
2023/07/05 07:05:37;;;;;;;6.55;1.10;;;11.90;99.90;;;;;;5074442;28;20024;-61
2023/07/05 07:08:52;;;;;;;11.07;1.23;;;11.90;99.90;;;;;;5071967;28;20390;-39
2023/07/05 07:11:18;;;;;;;9.98;1.20;;;11.90;99.90;;;;;;5070426;28;20040;-43
2023/07/05 07:13:44;;;;;;;8.75;2.20;;;12.00;99.90;;;;;;5072908;28;20024;-40
2023/07/05 07:16:12;;;;;;;5.32;1.73;;;12.00;99.90;;;;;;5068588;28;20509;-45
2023/07/05 07:18:37;;;;;;;11.85;2.15;;;12.00;99.90;;;;;;5069480;28;20074;-49
2023/07/05 07:21:06;;;;;;;8.68;1.77;;;12.10;99.90;;;;;;5066043;28;20466;-39
2023/07/05 07:23:31;;;;;;;4.50;2.08;;;12.10;99.90;;;;;;5072679;28;20016;-47
2023/07/05 07:26:06;;;;;;;12.45;2.13;;;12.20;99.90;;;;;;5071394;28;20139;-49
2023/07/05 07:28:32;;;;;;;12.55;2.45;;;12.20;99.90;;;;;;5088170;28;20028;-51
2023/07/05 07:30:58;;;;;;;29.92;2.70;;;12.20;99.90;;;;;;5070760;28;20013;-51
2023/07/05 07:33:24;;;;;;;6.78;2.25;;;12.20;99.90;;;;;;5070226;28;20023;-41
2023/07/05 07:35:50;;;;;;;5.28;2.05;;;12.30;99.90;;;;;;5067550;28;20047;-40
2023/07/05 07:38:17;;;;;;;5.88;2.05;;;12.20;99.90;;;;;;5070292;28;20032;-45
2023/07/05 07:40:42;;;;;;;10.18;1.92;;;12.30;99.90;;;;;;5071913;28;20032;-51
2023/07/05 07:43:08;;;;;;;8.90;1.98;;;12.30;99.90;;;;;;5064776;28;20473;-40
2023/07/05 07:45:34;;;;;;;10.38;2.65;;;12.30;99.90;;;;;;5067967;28;20039;-39
2023/07/05 07:48:00;;;;;;;14.00;2.95;;;12.30;99.90;;;;;;5065033;28;20032;-42
2023/07/05 07:50:26;;;;;;;14.15;2.45;;;12.40;99.90;;;;;;5065491;28;20028;-42
2023/07/05 07:52:53;;;;;;;11.52;2.28;;;12.40;99.90;;;;;;5068091;28;20469;-42
2023/07/05 07:55:18;;;;;;;10.63;2.03;;;12.40;99.90;;;;;;5067897;28;20358;-41
2023/07/05 07:57:44;;;;;;;10.02;2.00;;;12.40;99.90;;;;;;5065625;28;20025;-44
2023/07/05 08:00:10;;;;;;;5.43;1.95;;;12.50;99.90;;;;;;5067969;28;20480;-52
2023/07/05 08:02:39;;;;;;;13.93;2.80;;;12.40;99.90;;;;;;5070568;28;20550;-39
2023/07/05 08:05:16;;;;;;;9.23;2.47;;;12.40;99.90;;;;;;5062813;28;20436;-45
2023/07/05 08:07:42;;;;;;;8.93;2.20;;;12.40;99.90;;;;;;5070905;28;20108;-42
2023/07/05 08:10:08;;;;;;;8.35;2.10;;;12.40;99.90;;;;;;5067560;28;20367;-40
2023/07/05 08:12:34;;;;;;;7.47;1.50;;;12.30;99.90;;;;;;5062066;28;20071;-43
2023/07/05 08:15:01;;;;;;;4.40;1.92;;;12.30;99.90;;;;;;5069469;28;20032;-55
2023/07/05 08:17:28;;;;;;;10.77;1.85;;;12.30;99.90;;;;;;5072329;28;20145;-57
2023/07/05 08:19:54;;;;;;;20.00;2.38;;;12.20;99.90;;;;;;5072378;28;20495;-55
2023/07/05 08:22:19;;;;;;;4.38;1.50;;;12.30;99.90;;;;;;5059338;28;20107;-55
2023/07/05 08:24:45;;;;;;;10.63;2.35;;;12.30;99.90;;;;;;5066203;28;20500;-56
2023/07/05 08:27:11;;;;;;;15.07;2.50;;;12.20;99.90;;;;;;5071094;28;20024;-58
2023/07/05 08:29:37;;;;;;;5.30;1.98;;;12.20;99.90;;;;;;5065482;28;20065;-52
2023/07/05 08:32:03;;;;;;;3.90;1.70;;;12.20;99.90;;;;;;5069351;28;20024;-55
2023/07/05 08:34:30;;;;;;;10.48;1.80;;;12.30;99.90;;;;;;5072591;28;20071;-53
2023/07/05 08:36:55;;;;;;;6.25;2.15;;;12.30;99.90;;;;;;5053701;28;20021;-54
2023/07/05 08:39:22;;;;;;;6.45;1.63;;;12.30;99.90;;;;;;5069021;28;20032;-55
2023/07/05 08:42:08;;;;;;;11.73;1.88;;;12.20;99.90;;;;;;5072703;28;20021;-56
2023/07/05 08:44:56;;;;;;;10.27;1.70;;;12.10;99.90;;;;;;5073138;28;20095;-57
2023/07/05 08:47:27;;;;;;;14.95;2.40;;;12.10;99.90;;;;;;5066331;28;20502;-58
2023/07/05 08:50:18;;;;;;;9.07;1.90;;;12.30;99.90;;;;;;5071552;28;20086;-53
2023/07/05 08:52:47;;;;;;;7.63;2.22;;;12.40;99.90;;;;;;5071567;28;20029;-56
2023/07/05 08:55:44;;;;;;;10.48;1.60;;;12.50;99.90;;;;;;5072907;28;20385;-56
2023/07/05 08:58:13;;;;;;;5.80;2.10;;;12.50;99.90;;;;;;5052256;28;20060;-57
2023/07/05 09:00:50;;;;;;;11.40;2.28;;;12.60;99.90;;;;;;5062328;28;20380;-58
2023/07/05 09:03:16;;;;;;;8.45;1.85;;;12.60;99.90;;;;;;5070539;28;20028;-56
2023/07/05 09:05:48;;;;;;;9.73;1.92;;;12.70;99.90;;;;;;5067116;28;20035;-57
2023/07/05 09:08:38;;;;;;;5.38;2.17;;;12.60;99.90;;;;;;5063726;28;20052;-54
2023/07/05 09:11:17;;;;;;;13.88;2.92;;;12.60;99.90;;;;;;5061139;28;20029;-57
2023/07/05 09:13:43;;;;;;;18.48;3.17;;;12.40;99.90;;;;;;5069853;28;20539;-63
2023/07/05 09:16:33;;;;;;;7.55;2.13;;;12.40;99.90;;;;;;5070934;28;20052;-53
2023/07/05 09:19:32;;;;;;;7.57;2.28;;;12.40;99.90;;;;;;5064036;28;20033;-58
2023/07/05 09:22:04;;;;;;;11.63;2.22;;;12.40;99.90;;;;;;5053565;28;20474;-58
2023/07/05 09:24:41;;;;;;;8.20;2.55;;;12.40;99.90;;;;;;5052163;28;20378;-57
2023/07/05 09:27:23;;;;;;;19.92;3.45;;;12.40;99.90;;;;;;5072619;28;20021;-57
2023/07/05 09:30:06;;;;;;;17.65;3.28;;;12.50;99.90;;;;;;5072400;28;20128;-57
2023/07/05 09:32:36;;;;;;;17.17;3.42;;;12.50;99.90;;;;;;5065327;28;20029;-54
2023/07/05 09:35:03;;;;;;;10.13;2.97;;;12.30;99.90;;;;;;5054988;28;20025;-55
2023/07/05 09:37:35;;;;;;;8.43;2.63;;;12.10;99.90;;;;;;5058491;28;20032;-58
2023/07/05 09:40:17;;;;;;;4.25;2.10;;;12.00;99.90;;;;;;5072350;28;20025;-58
2023/07/05 09:42:57;;;;;;;15.65;2.95;;;11.80;99.90;;;;;;5072579;28;20036;-57
2023/07/05 09:45:23;;;;;;;15.82;3.70;;;11.70;99.90;;;;;;5072267;28;20040;-57
2023/07/05 09:47:58;;;;;;;18.77;2.58;;;11.70;99.90;;;;;;5072236;28;20476;-55
2023/07/05 09:50:23;;;;;;;15.35;3.10;;;11.70;99.90;;;;;;5071710;28;20016;-54
2023/07/05 09:53:05;;;;;;;13.55;2.90;;;11.80;99.90;;;;;;5074635;28;20597;-54
2023/07/05 09:55:32;;;;;;;8.50;2.92;;;11.80;99.90;;;;;;5066723;28;20070;-47
2023/07/05 09:57:58;;;;;;;17.77;2.38;;;11.70;99.90;;;;;;5072941;28;20024;-54
2023/07/05 10:00:35;;;;;;;7.88;2.33;;;11.70;99.90;;;;;;5075778;28;20481;-53
2023/07/05 10:03:14;;;;;;;12.18;2.70;;;11.60;99.90;;;;;;5075756;28;20480;-48
2023/07/05 10:05:52;;;;;;;5.65;2.53;;;11.60;99.90;;;;;;5074232;28;20036;-57
2023/07/05 10:08:21;;;;;;;13.88;2.97;;;11.60;99.90;;;;;;5073785;28;20074;-55
2023/07/05 10:10:48;;;;;;;11.23;2.83;;;11.70;99.90;;;;;;5059328;28;20441;-57
2023/07/05 10:13:16;;;;;;;9.82;2.88;;;11.80;99.90;;;;;;5075569;28;20020;-56
2023/07/05 10:15:46;;;;;;;4.93;2.38;;;11.80;99.90;;;;;;5063579;28;20037;-40
2023/07/05 10:18:31;;;;;;;4.85;2.63;;;11.90;99.90;;;;;;5075119;28;20024;-40
2023/07/05 10:21:08;;;;;;;12.63;3.05;;;12.00;99.90;;;;;;5075371;28;20493;-53
2023/07/05 10:23:35;;;;;;;15.57;3.00;;;12.30;99.90;;;;;;5057780;28;20090;-40
2023/07/05 10:26:06;;;;;;;11.15;2.88;;;12.50;99.90;;;;;;5070867;28;20175;-56
2023/07/05 10:28:35;;;;;;;16.80;3.05;;;12.80;99.90;;;;;;5071805;28;20082;-41
2023/07/05 10:31:04;;;;;;;18.25;4.32;;;13.00;99.90;;;;;;5074077;28;20528;-36
2023/07/05 10:33:37;;;;;;;16.88;3.95;;;13.30;99.90;;;;;;5072778;28;20682;-36
2023/07/05 10:36:09;;;;;;;20.23;3.03;;;13.50;99.90;;;;;;5072815;28;20033;-41
2023/07/05 10:38:49;;;;;;;14.70;3.28;;;13.70;99.90;;;;;;5072798;28;20530;-37
2023/07/05 10:41:25;;;;;;;18.40;3.35;;;13.80;99.90;;;;;;5063816;28;20036;-38
2023/07/05 10:44:02;;;;;;;10.40;3.10;;;13.90;99.90;;;;;;5074241;28;20476;-36
2023/07/05 10:46:28;;;;;;;16.92;3.53;;;13.90;99.90;;;;;;5073855;28;20020;-35
2023/07/05 10:48:55;;;;;;;16.85;3.15;;;14.00;99.90;;;;;;5072226;28;20133;-39
2023/07/05 10:51:27;;;;;;;9.85;3.17;;;14.00;99.90;;;;;;5074750;28;20021;-43
2023/07/05 10:54:14;;;;;;;14.93;3.75;;;14.10;99.90;;;;;;5073588;28;20025;-36
2023/07/05 10:56:41;;;;;;;18.35;3.90;;;14.10;99.90;;;;;;5058798;28;20136;-41
2023/07/05 10:59:16;;;;;;;8.82;3.22;;;14.10;99.90;;;;;;5072471;28;20117;-37
2023/07/05 11:01:55;;;;;;;16.17;3.25;;;14.10;99.90;;;;;;5073827;28;20497;-37
2023/07/05 11:04:25;;;;;;;23.77;5.07;;;14.00;99.90;;;;;;5073642;28;20025;-37
2023/07/05 11:06:53;;;;;;;11.32;3.22;;;13.90;99.90;;;;;;5073549;28;20396;-38
2023/07/05 11:09:19;;;;;;;9.80;2.95;;;13.90;99.90;;;;;;5074759;28;20056;-39
2023/07/05 11:11:50;;;;;;;16.30;3.47;;;13.90;99.90;;;;;;5074428;28;20044;-38
2023/07/05 11:14:16;;;;;;;12.90;3.45;;;13.90;99.90;;;;;;5073335;28;20025;-38
2023/07/05 11:16:45;;;;;;;6.85;3.20;;;13.90;99.90;;;;;;5073393;28;20116;-41
2023/07/05 11:19:27;;;;;;;6.70;4.18;;;13.80;99.90;;;;;;5073394;28;20077;-36
2023/07/05 11:21:54;;;;;;;7.40;2.90;;;13.60;99.90;;;;;;5073122;28;20032;-37
2023/07/05 11:24:31;;;;;;;4.60;2.67;;;13.50;99.90;;;;;;5070177;28;20123;-37
2023/07/05 11:26:59;;;;;;;12.05;2.28;;;13.10;99.90;;;;;;5072973;28;20473;-42
2023/07/05 11:29:27;;;;;;;13.15;2.42;;;13.00;99.90;;;;;;5074138;28;20029;-37
2023/07/05 11:31:53;;;;;;;7.45;2.28;;;12.90;99.90;;;;;;5072905;28;20032;-36
2023/07/05 11:34:40;;;;;;;13.45;2.53;;;12.90;99.90;;;;;;5071562;28;20107;-38
2023/07/05 11:37:06;;;;;;;;;;;12.80;99.90;;;;;;5074604;28;20460;-37
2023/07/05 11:39:36;;;;;;;6.47;1.95;;;12.60;99.90;;;;;;5074170;28;19998;-40
2023/07/05 11:42:14;;;;;;;5.68;2.25;;;12.50;99.90;;;;;;5072700;28;20042;-37
2023/07/05 11:44:50;;;;;;;5.95;2.35;;;12.40;99.90;;;;;;5073981;28;20102;-38
2023/07/05 11:47:21;;;;;;;7.03;2.35;;;12.40;99.90;;;;;;5071882;28;20028;-39
2023/07/05 11:50:06;;;;;;;12.75;2.50;;;12.40;99.90;;;;;;5072077;28;20029;-38
2023/07/05 11:52:38;;;;;;;8.00;2.33;;;12.40;99.90;;;;;;5073682;28;20023;-36
2023/07/05 11:55:24;;;;;;;4.95;1.77;;;12.50;99.90;;;;;;5073898;28;20035;-40
2023/07/05 11:58:07;;;;;;;9.10;3.28;;;12.50;99.90;;;;;;5071288;28;20036;-40
2023/07/05 12:00:44;;;;;;;5.70;2.45;;;12.50;99.90;;;;;;5071194;28;20043;-38
2023/07/05 12:03:24;;;;;;;10.05;2.58;;;12.50;99.90;;;;;;5072112;28;20032;-40
2023/07/05 12:06:19;;;;;;;6.63;2.78;;;12.50;99.90;;;;;;5071957;28;20040;-37
2023/07/05 12:08:53;;;;;;;13.27;2.88;;;12.60;99.90;;;;;;5071217;28;20489;-40
2023/07/05 12:11:42;;;;;;;13.30;3.22;;;12.70;99.90;;;;;;5073292;28;20095;-39
2023/07/05 12:14:13;;;;;;;5.75;1.92;;;12.80;99.90;;;;;;5072396;28;20028;-40
2023/07/05 12:16:40;;;;;;;12.45;2.15;;;12.90;99.90;;;;;;5073241;28;20032;-38
2023/07/05 12:19:07;;;;;;;8.50;3.08;;;12.90;99.90;;;;;;5072211;28;20044;-38
2023/07/05 12:21:34;;;;;;;5.73;1.33;;;12.90;99.90;;;;;;5072157;28;20025;-36
2023/07/05 12:24:04;;;;;;;12.30;2.40;;;12.80;99.90;;;;;;5072216;28;20273;-39
2023/07/05 12:26:31;;;;;;;12.38;2.13;;;12.80;99.90;;;;;;5070513;28;20447;-49
2023/07/05 12:29:13;;;;;;;4.32;2.10;;;13.00;99.90;;;;;;5071293;28;20020;-47
2023/07/05 12:31:38;;;;;;;5.57;2.25;;;13.20;99.90;;;;;;5071047;28;20024;-36
2023/07/05 12:34:04;;;;;;;7.53;2.63;;;13.20;99.90;;;;;;5072965;28;20028;-45
2023/07/05 12:36:39;;;;;;;5.13;2.10;;;13.10;99.90;;;;;;5070615;28;20025;-38
2023/07/05 12:39:08;;;;;;;6.47;1.88;;;13.10;99.90;;;;;;5072275;28;20103;-42
2023/07/05 12:41:35;;;;;;;6.25;2.17;;;13.10;99.90;;;;;;5072071;28;20027;-39
2023/07/05 12:44:03;;;;;;;3.80;2.20;;;13.10;99.90;;;;;;5072106;28;20465;-40
2023/07/05 12:46:32;;;;;;;7.28;1.90;;;13.20;99.90;;;;;;5072037;28;20477;-37
2023/07/05 12:49:23;;;;;;;4.68;1.90;;;13.20;99.90;;;;;;5065344;28;20048;-38
2023/07/05 12:51:51;;;;;;;7.90;2.10;;;13.20;99.90;;;;;;5071546;28;20082;-37
2023/07/05 12:54:16;;;;;;;;;;;13.20;99.90;;;;;;5071977;28;20039;-40
2023/07/05 12:56:45;;;;;;;12.55;2.67;;;13.30;99.90;;;;;;5072044;28;20000;-40
2023/07/05 12:59:32;;;;;;;11.10;2.50;;;13.50;99.90;;;;;;5071193;28;20027;-37